Taurus — WDB5562 — position and weather

sailwx.info

Track history (hours):
 
Tides and Currents Weather Stations Pressure Air Temp Water Temp Dewpoint Dewpoint Depression Visibility Wind Speed Wind Dir Waves Ship Positions

Taurus

Owner: Kirby Offshore Marine, LLC, Staten Island, NY. More information available from US FCC via Universal Licensing System and Coast Guard Vessel Documentation Center.

Last reported at 2014-Nov-23 06:34 UTC. Time now 2014-Nov-23 08:48 UTC.
Position N 40°46' W 073°57'.

Length 24 m.

Type: Tug. MMSI: 366910990.

Date/timePositionNaut miles runAvg speedWind from/ knotsBaromVisibWave heightAir tempDewpointWater temp
2014-Nov-23 06:34N 40°46' W 073°57'0 0.0
2014-Nov-23 05:27N 40°46' W 073°57'0 0.0
2014-Nov-23 02:33N 40°46' W 073°57'1 0.8
2014-Nov-23 01:33N 40°45' W 073°57'4 3.6
2014-Nov-23 00:33N 40°42' W 073°60'4 4.3
2014-Nov-22 23:33N 40°39' W 074°04'0 0.0
2014-Nov-22 22:33N 40°39' W 074°04'0 0.1
2014-Nov-22 21:33N 40°39' W 074°04'0 0.0
2014-Nov-22 20:33N 40°39' W 074°04'0 0.0
2014-Nov-22 19:33N 40°39' W 074°04'0 0.1
2014-Nov-22 18:33N 40°39' W 074°04'0 0.1
2014-Nov-22 17:33N 40°39' W 074°04'1 1.2
2014-Nov-22 16:33N 40°39' W 074°06'6 4.4
2014-Nov-22 15:15N 40°36' W 074°12'0 0.0
2014-Nov-22 14:32N 40°36' W 074°12'0 0.0
2014-Nov-22 12:29N 40°36' W 074°12'0 0.0
2014-Nov-22 11:32N 40°36' W 074°12'0 0.0
2014-Nov-22 10:30N 40°36' W 074°12'0 0.0
2014-Nov-22 09:31N 40°36' W 074°12'0 0.1
2014-Nov-22 08:28N 40°36' W 074°12'6 6.8
2014-Nov-22 07:33N 40°39' W 074°05'0 0.1
2014-Nov-22 06:34N 40°39' W 074°05'0 0.0
2014-Nov-22 05:33N 40°39' W 074°05'1 0.6
2014-Nov-22 04:33N 40°40' W 074°04'0 0.1
2014-Nov-22 03:33N 40°40' W 074°04'0 0.5
2014-Nov-22 02:33N 40°39' W 074°04'0 0.0
2014-Nov-22 01:33N 40°39' W 074°04'6 5.5
2014-Nov-22 00:23N 40°38' W 074°12'3 3.1
2014-Nov-21 23:33N 40°39' W 074°09'1 0.6
2014-Nov-21 22:33N 40°39' W 074°10'0 0.1
2014-Nov-21 21:33N 40°38' W 074°10'0 0.0
2014-Nov-21 20:34N 40°38' W 074°10'4 3.7
2014-Nov-21 19:33N 40°39' W 074°05'1 1.2
2014-Nov-21 18:33N 40°39' W 074°04'1 1.3
2014-Nov-21 17:33N 40°39' W 074°05'1 0.9
2014-Nov-21 16:33N 40°39' W 074°06'5 2.3
2014-Nov-21 14:30N 40°38' W 074°12'2 0.9
2014-Nov-21 12:32N 40°39' W 074°10'3 2.9
2014-Nov-21 11:33N 40°39' W 074°07'3 2.5
2014-Nov-21 10:33N 40°38' W 074°10'0 0.0
2014-Nov-21 09:33N 40°38' W 074°10'0 0.0
2014-Nov-21 08:33N 40°38' W 074°10'0 0.0
2014-Nov-21 07:34N 40°38' W 074°10'0 0.0
2014-Nov-21 06:33N 40°38' W 074°10'0 0.0
2014-Nov-21 05:33N 40°38' W 074°10'0 0.0
2014-Nov-21 04:33N 40°38' W 074°10'0 0.0
2014-Nov-21 03:33N 40°38' W 074°10'0 0.0
2014-Nov-21 02:33N 40°38' W 074°10'2 2.0
2014-Nov-21 01:32N 40°38' W 074°12'0 0.1
2014-Nov-20 23:33N 40°37' W 074°12'2 1.8
2014-Nov-20 22:33N 40°36' W 074°12'1 0.7
2014-Nov-20 21:32N 40°36' W 074°12'1 0.9
2014-Nov-20 20:06N 40°35' W 074°12'1 0.9
2014-Nov-20 19:12N 40°36' W 074°12'3 4.9
2014-Nov-20 18:32N 40°39' W 074°10'0 0.4
2014-Nov-20 17:32N 40°38' W 074°10'6 5.7
2014-Nov-20 16:30N 40°33' W 074°14'1 1.1
2014-Nov-20 15:12N 40°32' W 074°15'6 3.3
2014-Nov-20 13:26N 40°38' W 074°12'3 3.1
2014-Nov-20 12:32N 40°39' W 074°09'5 4.8
2014-Nov-20 11:33N 40°39' W 074°03'0 0.0
2014-Nov-20 10:33N 40°39' W 074°03'0 0.0
2014-Nov-20 09:33N 40°39' W 074°03'0 0.0
2014-Nov-20 08:33N 40°39' W 074°03'0 0.0
2014-Nov-20 07:34N 40°39' W 074°03'0 0.2
2014-Nov-20 06:33N 40°39' W 074°02'7 6.8
2014-Nov-20 05:33N 40°45' W 073°58'13 6.5
2014-Nov-20 03:33N 40°53' W 073°44'8 6.7
2014-Nov-20 02:26N 40°56' W 073°35'4 4.2
2014-Nov-20 01:32N 40°54' W 073°31'1 0.2
2014-Nov-19 18:31N 40°53' W 073°32'0 0.0
2014-Nov-19 17:33N 40°53' W 073°32'0 0.0
2014-Nov-19 16:32N 40°53' W 073°32'0 0.0
2014-Nov-19 15:32N 40°53' W 073°32'0 0.0
2014-Nov-19 14:28N 40°53' W 073°32'0 0.0
2014-Nov-19 13:33N 40°53' W 073°32'19 2.3
2014-Nov-19 05:29N 40°47' W 073°55'3 2.9
2014-Nov-19 04:33N 40°45' W 073°58'3 3.0
2014-Nov-19 03:33N 40°42' W 073°59'4 3.5
2014-Nov-19 02:33N 40°40' W 074°02'2 1.5
2014-Nov-19 01:33N 40°39' W 074°04'3 3.3
2014-Nov-19 00:33N 40°39' W 074°08'1 1.2
2014-Nov-18 23:33N 40°38' W 074°10'0 0.0
2014-Nov-18 22:33N 40°38' W 074°10'0 0.0
2014-Nov-18 21:33N 40°38' W 074°10'0 0.0
2014-Nov-18 20:34N 40°38' W 074°10'0 0.0
2014-Nov-18 19:33N 40°38' W 074°10'0 0.0
2014-Nov-18 18:33N 40°38' W 074°10'0 0.0
2014-Nov-18 17:33N 40°39' W 074°10'0 0.0
2014-Nov-18 16:32N 40°39' W 074°10'0 0.0
2014-Nov-18 15:33N 40°39' W 074°10'4 4.5
2014-Nov-18 14:33N 40°39' W 074°04'5 5.2
2014-Nov-18 13:33N 40°39' W 074°11'2 1.5
2014-Nov-18 12:32N 40°38' W 074°12'4 3.7
2014-Nov-18 11:33N 40°39' W 074°08'1 0.6
2014-Nov-18 10:33N 40°39' W 074°08'1 1.1
2014-Nov-18 09:33N 40°39' W 074°10'0 0.0
2014-Nov-18 08:33N 40°39' W 074°10'0 0.0
2014-Nov-18 07:33N 40°39' W 074°10'0 0.0
2014-Nov-18 06:33N 40°39' W 074°10'0 0.0
2014-Nov-18 05:31N 40°39' W 074°10'0 0.0
2014-Nov-18 04:33N 40°39' W 074°10'0 0.0
2014-Nov-18 03:33N 40°39' W 074°10'0 0.0
2014-Nov-18 02:30N 40°39' W 074°10'0 0.0
2014-Nov-18 01:33N 40°39' W 074°10'0 0.0
2014-Nov-18 00:27N 40°39' W 074°10'4 5.1
2014-Nov-17 23:34N 40°39' W 074°04'6 6.0
2014-Nov-17 22:33N 40°38' W 074°12'0 0.2
2014-Nov-17 21:33N 40°38' W 074°12'2 1.7
2014-Nov-17 20:33N 40°39' W 074°10'0 0.0
2014-Nov-17 19:33N 40°39' W 074°10'0 0.0
2014-Nov-17 18:33N 40°39' W 074°10'0 0.0
2014-Nov-17 17:33N 40°39' W 074°10'0 0.0
2014-Nov-17 16:33N 40°39' W 074°10'0 0.0
2014-Nov-17 15:33N 40°39' W 074°10'0 0.0
2014-Nov-17 14:33N 40°39' W 074°10'0 0.0
2014-Nov-17 13:33N 40°39' W 074°10'0 0.0
2014-Nov-17 12:34N 40°39' W 074°10'2 1.7
2014-Nov-17 11:22N 40°38' W 074°12'2 2.5
2014-Nov-17 10:33N 40°38' W 074°10'3 2.0
2014-Nov-17 09:17N 40°39' W 074°07'3 3.4
2014-Nov-17 08:33N 40°39' W 074°10'0 0.0
2014-Nov-17 07:33N 40°39' W 074°10'0 0.0
2014-Nov-17 06:33N 40°39' W 074°10'0 0.0
2014-Nov-17 05:33N 40°39' W 074°10'0 0.0
2014-Nov-17 04:33N 40°39' W 074°10'3 2.6
2014-Nov-17 03:33N 40°39' W 074°06'9 9.3
2014-Nov-17 02:34N 40°45' W 073°58'4 3.8
2014-Nov-17 01:33N 40°48' W 073°54'4 3.9
2014-Nov-17 00:33N 40°45' W 073°58'7 7.3
2014-Nov-16 23:34N 40°39' W 074°04'5 4.9
2014-Nov-16 22:33N 40°38' W 074°10'1 0.7
2014-Nov-16 21:32N 40°38' W 074°09'2 2.2
2014-Nov-16 20:32N 40°39' W 074°06'1 1.0
2014-Nov-16 19:33N 40°39' W 074°05'4 3.9
2014-Nov-16 18:33N 40°39' W 074°10'0 0.0
2014-Nov-16 17:33N 40°39' W 074°10'0 0.0
2014-Nov-16 16:33N 40°39' W 074°10'0 0.0
2014-Nov-16 15:33N 40°39' W 074°10'0 0.0
2014-Nov-16 14:29N 40°39' W 074°10'0 0.0
2014-Nov-16 13:33N 40°39' W 074°10'0 0.0
2014-Nov-16 12:33N 40°39' W 074°10'0 0.0
2014-Nov-16 11:33N 40°39' W 074°10'0 0.0
2014-Nov-16 10:33N 40°39' W 074°10'0 0.0
2014-Nov-16 09:33N 40°39' W 074°10'0 0.0
2014-Nov-16 08:33N 40°39' W 074°10'0 0.0
2014-Nov-16 07:33N 40°39' W 074°10'0 0.0
2014-Nov-16 06:33N 40°39' W 074°10'0 0.0
2014-Nov-16 05:33N 40°39' W 074°10'0 0.1
2014-Nov-16 04:33N 40°38' W 074°10'0 0.0
2014-Nov-16 03:33N 40°38' W 074°10'6 6.1
2014-Nov-16 02:33N 40°40' W 074°02'10 8.6
2014-Nov-16 01:24N 40°48' W 073°54'20 6.9
2014-Nov-15 22:28N 40°58' W 073°30'8 8.3
2014-Nov-15 21:33N 41°01' W 073°21'9 8.4
2014-Nov-15 20:32N 41°05' W 073°11'8 8.4
2014-Nov-15 19:33N 41°09' W 073°02'8 7.7
2014-Nov-15 18:33N 41°15' W 072°55'3 2.6
2014-Nov-15 17:28N 41°18' W 072°54'0 0.0
2014-Nov-15 16:33N 41°18' W 072°54'0 0.0
2014-Nov-15 15:33N 41°18' W 072°54'0 0.0
2014-Nov-15 13:33N 41°18' W 072°54'0 0.0
2014-Nov-15 12:33N 41°18' W 072°54'0 0.0
2014-Nov-15 11:33N 41°18' W 072°54'0 0.0
2014-Nov-15 10:23N 41°18' W 072°54'0 0.0
2014-Nov-15 09:33N 41°18' W 072°54'0 0.0
2014-Nov-15 08:32N 41°18' W 072°54'0 0.2
2014-Nov-15 07:33N 41°18' W 072°54'0 0.0
2014-Nov-15 06:33N 41°18' W 072°54'0 0.0
2014-Nov-15 05:33N 41°18' W 072°54'0 0.2
2014-Nov-15 04:33N 41°17' W 072°55'6 6.1
2014-Nov-15 03:34N 41°12' W 072°58'7 7.1
2014-Nov-15 02:33N 41°07' W 073°05'7 7.4
2014-Nov-15 01:33N 41°04' W 073°14'7 7.4
2014-Nov-15 00:33N 41°01' W 073°23'16 7.1
2014-Nov-14 22:19N 40°54' W 073°42'11 6.0
2014-Nov-14 20:31N 40°48' W 073°54'7 7.3
2014-Nov-14 19:33N 40°42' W 073°59'7 6.8
2014-Nov-14 18:33N 40°39' W 074°07'6 5.3
2014-Nov-14 17:30N 40°35' W 074°12'4 3.4
2014-Nov-14 16:26N 40°32' W 074°15'4 2.4
2014-Nov-14 14:32N 40°36' W 074°12'3 1.5
2014-Nov-14 12:33N 40°38' W 074°10'3 2.5
2014-Nov-14 11:33N 40°39' W 074°07'3 2.5
2014-Nov-14 10:32N 40°38' W 074°10'0 0.0
2014-Nov-14 09:30N 40°38' W 074°10'0 0.0
2014-Nov-14 07:33N 40°38' W 074°10'0 0.0
2014-Nov-14 06:33N 40°38' W 074°10'0 0.0
2014-Nov-14 05:33N 40°38' W 074°10'0 0.0
2014-Nov-14 04:24N 40°38' W 074°10'0 0.0
2014-Nov-14 03:33N 40°38' W 074°10'0 0.0
2014-Nov-14 02:33N 40°38' W 074°10'0 0.1
2014-Nov-14 01:33N 40°38' W 074°10'4 3.7
2014-Nov-14 00:34N 40°39' W 074°05'0 0.2
2014-Nov-13 23:33N 40°39' W 074°05'0 0.0
2014-Nov-13 22:33N 40°39' W 074°05'0 0.3
2014-Nov-13 21:33N 40°39' W 074°05'6 6.0
2014-Nov-13 20:33N 40°43' W 073°59'6 6.5
2014-Nov-13 19:33N 40°48' W 073°54'0 0.0
2014-Nov-13 18:33N 40°48' W 073°54'0 0.0
2014-Nov-13 17:33N 40°48' W 073°54'0 0.0
2014-Nov-13 16:32N 40°48' W 073°54'0 0.0
2014-Nov-13 15:33N 40°48' W 073°54'0 0.0
2014-Nov-13 14:33N 40°48' W 073°54'0 0.0
2014-Nov-13 13:33N 40°48' W 073°54'0 0.0
2014-Nov-13 12:33N 40°48' W 073°54'0 0.0
2014-Nov-13 11:32N 40°48' W 073°54'0 0.0
2014-Nov-13 10:32N 40°48' W 073°54'0 0.0
2014-Nov-13 09:33N 40°48' W 073°54'0 0.0
2014-Nov-13 08:33N 40°48' W 073°54'0 0.3
2014-Nov-13 07:33N 40°48' W 073°54'  
Track history (hours):
 
Tides and Currents Weather Stations Pressure Air Temp Water Temp Dewpoint Dewpoint Depression Visibility Wind Speed Wind Dir Waves Ship Positions

Taurus

Owner: Kirby Offshore Marine, LLC, Staten Island, NY. More information available from US FCC via Universal Licensing System and Coast Guard Vessel Documentation Center.

Last reported at 2014-Nov-23 06:34 UTC. Time now 2014-Nov-23 08:48 UTC.
Position N 40°46' W 073°57'.

Length 24 m.

Type: Tug. MMSI: 366910990.

Date/timePositionNaut miles runAvg speedWind from/ knotsBaromVisibWave heightAir tempDewpointWater temp
2014-Nov-23 06:34N 40°46' W 073°57'0 0.0
2014-Nov-23 05:27N 40°46' W 073°57'0 0.0
2014-Nov-23 02:33N 40°46' W 073°57'1 0.8
2014-Nov-23 01:33N 40°45' W 073°57'4 3.6
2014-Nov-23 00:33N 40°42' W 073°60'4 4.3
2014-Nov-22 23:33N 40°39' W 074°04'0 0.0
2014-Nov-22 22:33N 40°39' W 074°04'0 0.1
2014-Nov-22 21:33N 40°39' W 074°04'0 0.0
2014-Nov-22 20:33N 40°39' W 074°04'0 0.0
2014-Nov-22 19:33N 40°39' W 074°04'0 0.1
2014-Nov-22 18:33N 40°39' W 074°04'0 0.1
2014-Nov-22 17:33N 40°39' W 074°04'1 1.2
2014-Nov-22 16:33N 40°39' W 074°06'6 4.4
2014-Nov-22 15:15N 40°36' W 074°12'0 0.0
2014-Nov-22 14:32N 40°36' W 074°12'0 0.0
2014-Nov-22 12:29N 40°36' W 074°12'0 0.0
2014-Nov-22 11:32N 40°36' W 074°12'0 0.0
2014-Nov-22 10:30N 40°36' W 074°12'0 0.0
2014-Nov-22 09:31N 40°36' W 074°12'0 0.1
2014-Nov-22 08:28N 40°36' W 074°12'6 6.8
2014-Nov-22 07:33N 40°39' W 074°05'0 0.1
2014-Nov-22 06:34N 40°39' W 074°05'0 0.0
2014-Nov-22 05:33N 40°39' W 074°05'1 0.6
2014-Nov-22 04:33N 40°40' W 074°04'0 0.1
2014-Nov-22 03:33N 40°40' W 074°04'0 0.5
2014-Nov-22 02:33N 40°39' W 074°04'0 0.0
2014-Nov-22 01:33N 40°39' W 074°04'6 5.5
2014-Nov-22 00:23N 40°38' W 074°12'3 3.1
2014-Nov-21 23:33N 40°39' W 074°09'1 0.6
2014-Nov-21 22:33N 40°39' W 074°10'0 0.1
2014-Nov-21 21:33N 40°38' W 074°10'0 0.0
2014-Nov-21 20:34N 40°38' W 074°10'4 3.7
2014-Nov-21 19:33N 40°39' W 074°05'1 1.2
2014-Nov-21 18:33N 40°39' W 074°04'1 1.3
2014-Nov-21 17:33N 40°39' W 074°05'1 0.9
2014-Nov-21 16:33N 40°39' W 074°06'5 2.3
2014-Nov-21 14:30N 40°38' W 074°12'2 0.9
2014-Nov-21 12:32N 40°39' W 074°10'3 2.9
2014-Nov-21 11:33N 40°39' W 074°07'3 2.5
2014-Nov-21 10:33N 40°38' W 074°10'0 0.0
2014-Nov-21 09:33N 40°38' W 074°10'0 0.0
2014-Nov-21 08:33N 40°38' W 074°10'0 0.0
2014-Nov-21 07:34N 40°38' W 074°10'0 0.0
2014-Nov-21 06:33N 40°38' W 074°10'0 0.0
2014-Nov-21 05:33N 40°38' W 074°10'0 0.0
2014-Nov-21 04:33N 40°38' W 074°10'0 0.0
2014-Nov-21 03:33N 40°38' W 074°10'0 0.0
2014-Nov-21 02:33N 40°38' W 074°10'2 2.0
2014-Nov-21 01:32N 40°38' W 074°12'0 0.1
2014-Nov-20 23:33N 40°37' W 074°12'2 1.8
2014-Nov-20 22:33N 40°36' W 074°12'1 0.7
2014-Nov-20 21:32N 40°36' W 074°12'1 0.9
2014-Nov-20 20:06N 40°35' W 074°12'1 0.9
2014-Nov-20 19:12N 40°36' W 074°12'3 4.9
2014-Nov-20 18:32N 40°39' W 074°10'0 0.4
2014-Nov-20 17:32N 40°38' W 074°10'6 5.7
2014-Nov-20 16:30N 40°33' W 074°14'1 1.1
2014-Nov-20 15:12N 40°32' W 074°15'6 3.3
2014-Nov-20 13:26N 40°38' W 074°12'3 3.1
2014-Nov-20 12:32N 40°39' W 074°09'5 4.8
2014-Nov-20 11:33N 40°39' W 074°03'0 0.0
2014-Nov-20 10:33N 40°39' W 074°03'0 0.0
2014-Nov-20 09:33N 40°39' W 074°03'0 0.0
2014-Nov-20 08:33N 40°39' W 074°03'0 0.0
2014-Nov-20 07:34N 40°39' W 074°03'0 0.2
2014-Nov-20 06:33N 40°39' W 074°02'7 6.8
2014-Nov-20 05:33N 40°45' W 073°58'13 6.5
2014-Nov-20 03:33N 40°53' W 073°44'8 6.7
2014-Nov-20 02:26N 40°56' W 073°35'4 4.2
2014-Nov-20 01:32N 40°54' W 073°31'1 0.2
2014-Nov-19 18:31N 40°53' W 073°32'0 0.0
2014-Nov-19 17:33N 40°53' W 073°32'0 0.0
2014-Nov-19 16:32N 40°53' W 073°32'0 0.0
2014-Nov-19 15:32N 40°53' W 073°32'0 0.0
2014-Nov-19 14:28N 40°53' W 073°32'0 0.0
2014-Nov-19 13:33N 40°53' W 073°32'19 2.3
2014-Nov-19 05:29N 40°47' W 073°55'3 2.9
2014-Nov-19 04:33N 40°45' W 073°58'3 3.0
2014-Nov-19 03:33N 40°42' W 073°59'4 3.5
2014-Nov-19 02:33N 40°40' W 074°02'2 1.5
2014-Nov-19 01:33N 40°39' W 074°04'3 3.3
2014-Nov-19 00:33N 40°39' W 074°08'1 1.2
2014-Nov-18 23:33N 40°38' W 074°10'0 0.0
2014-Nov-18 22:33N 40°38' W 074°10'0 0.0
2014-Nov-18 21:33N 40°38' W 074°10'0 0.0
2014-Nov-18 20:34N 40°38' W 074°10'0 0.0
2014-Nov-18 19:33N 40°38' W 074°10'0 0.0
2014-Nov-18 18:33N 40°38' W 074°10'0 0.0
2014-Nov-18 17:33N 40°39' W 074°10'0 0.0
2014-Nov-18 16:32N 40°39' W 074°10'0 0.0
2014-Nov-18 15:33N 40°39' W 074°10'4 4.5
2014-Nov-18 14:33N 40°39' W 074°04'5 5.2
2014-Nov-18 13:33N 40°39' W 074°11'2 1.5
2014-Nov-18 12:32N 40°38' W 074°12'4 3.7
2014-Nov-18 11:33N 40°39' W 074°08'1 0.6
2014-Nov-18 10:33N 40°39' W 074°08'1 1.1
2014-Nov-18 09:33N 40°39' W 074°10'0 0.0
2014-Nov-18 08:33N 40°39' W 074°10'0 0.0
2014-Nov-18 07:33N 40°39' W 074°10'0 0.0
2014-Nov-18 06:33N 40°39' W 074°10'0 0.0
2014-Nov-18 05:31N 40°39' W 074°10'0 0.0
2014-Nov-18 04:33N 40°39' W 074°10'0 0.0
2014-Nov-18 03:33N 40°39' W 074°10'0 0.0
2014-Nov-18 02:30N 40°39' W 074°10'0 0.0
2014-Nov-18 01:33N 40°39' W 074°10'0 0.0
2014-Nov-18 00:27N 40°39' W 074°10'4 5.1
2014-Nov-17 23:34N 40°39' W 074°04'6 6.0
2014-Nov-17 22:33N 40°38' W 074°12'0 0.2
2014-Nov-17 21:33N 40°38' W 074°12'2 1.7
2014-Nov-17 20:33N 40°39' W 074°10'0 0.0
2014-Nov-17 19:33N 40°39' W 074°10'0 0.0
2014-Nov-17 18:33N 40°39' W 074°10'0 0.0
2014-Nov-17 17:33N 40°39' W 074°10'0 0.0
2014-Nov-17 16:33N 40°39' W 074°10'0 0.0
2014-Nov-17 15:33N 40°39' W 074°10'0 0.0
2014-Nov-17 14:33N 40°39' W 074°10'0 0.0
2014-Nov-17 13:33N 40°39' W 074°10'0 0.0
2014-Nov-17 12:34N 40°39' W 074°10'2 1.7
2014-Nov-17 11:22N 40°38' W 074°12'2 2.5
2014-Nov-17 10:33N 40°38' W 074°10'3 2.0
2014-Nov-17 09:17N 40°39' W 074°07'3 3.4
2014-Nov-17 08:33N 40°39' W 074°10'0 0.0
2014-Nov-17 07:33N 40°39' W 074°10'0 0.0
2014-Nov-17 06:33N 40°39' W 074°10'0 0.0
2014-Nov-17 05:33N 40°39' W 074°10'0 0.0
2014-Nov-17 04:33N 40°39' W 074°10'3 2.6
2014-Nov-17 03:33N 40°39' W 074°06'9 9.3
2014-Nov-17 02:34N 40°45' W 073°58'4 3.8
2014-Nov-17 01:33N 40°48' W 073°54'4 3.9
2014-Nov-17 00:33N 40°45' W 073°58'7 7.3
2014-Nov-16 23:34N 40°39' W 074°04'5 4.9
2014-Nov-16 22:33N 40°38' W 074°10'1 0.7
2014-Nov-16 21:32N 40°38' W 074°09'2 2.2
2014-Nov-16 20:32N 40°39' W 074°06'1 1.0
2014-Nov-16 19:33N 40°39' W 074°05'4 3.9
2014-Nov-16 18:33N 40°39' W 074°10'0 0.0
2014-Nov-16 17:33N 40°39' W 074°10'0 0.0
2014-Nov-16 16:33N 40°39' W 074°10'0 0.0
2014-Nov-16 15:33N 40°39' W 074°10'0 0.0
2014-Nov-16 14:29N 40°39' W 074°10'0 0.0
2014-Nov-16 13:33N 40°39' W 074°10'0 0.0
2014-Nov-16 12:33N 40°39' W 074°10'0 0.0
2014-Nov-16 11:33N 40°39' W 074°10'0 0.0
2014-Nov-16 10:33N 40°39' W 074°10'0 0.0
2014-Nov-16 09:33N 40°39' W 074°10'0 0.0
2014-Nov-16 08:33N 40°39' W 074°10'0 0.0
2014-Nov-16 07:33N 40°39' W 074°10'0 0.0
2014-Nov-16 06:33N 40°39' W 074°10'0 0.0
2014-Nov-16 05:33N 40°39' W 074°10'0 0.1
2014-Nov-16 04:33N 40°38' W 074°10'0 0.0
2014-Nov-16 03:33N 40°38' W 074°10'6 6.1
2014-Nov-16 02:33N 40°40' W 074°02'10 8.6
2014-Nov-16 01:24N 40°48' W 073°54'20 6.9
2014-Nov-15 22:28N 40°58' W 073°30'8 8.3
2014-Nov-15 21:33N 41°01' W 073°21'9 8.4
2014-Nov-15 20:32N 41°05' W 073°11'8 8.4
2014-Nov-15 19:33N 41°09' W 073°02'8 7.7
2014-Nov-15 18:33N 41°15' W 072°55'3 2.6
2014-Nov-15 17:28N 41°18' W 072°54'0 0.0
2014-Nov-15 16:33N 41°18' W 072°54'0 0.0
2014-Nov-15 15:33N 41°18' W 072°54'0 0.0
2014-Nov-15 13:33N 41°18' W 072°54'0 0.0
2014-Nov-15 12:33N 41°18' W 072°54'0 0.0
2014-Nov-15 11:33N 41°18' W 072°54'0 0.0
2014-Nov-15 10:23N 41°18' W 072°54'0 0.0
2014-Nov-15 09:33N 41°18' W 072°54'0 0.0
2014-Nov-15 08:32N 41°18' W 072°54'0 0.2
2014-Nov-15 07:33N 41°18' W 072°54'0 0.0
2014-Nov-15 06:33N 41°18' W 072°54'0 0.0
2014-Nov-15 05:33N 41°18' W 072°54'0 0.2
2014-Nov-15 04:33N 41°17' W 072°55'6 6.1
2014-Nov-15 03:34N 41°12' W 072°58'7 7.1
2014-Nov-15 02:33N 41°07' W 073°05'7 7.4
2014-Nov-15 01:33N 41°04' W 073°14'7 7.4
2014-Nov-15 00:33N 41°01' W 073°23'16 7.1
2014-Nov-14 22:19N 40°54' W 073°42'11 6.0
2014-Nov-14 20:31N 40°48' W 073°54'7 7.3
2014-Nov-14 19:33N 40°42' W 073°59'7 6.8
2014-Nov-14 18:33N 40°39' W 074°07'6 5.3
2014-Nov-14 17:30N 40°35' W 074°12'4 3.4
2014-Nov-14 16:26N 40°32' W 074°15'4 2.4
2014-Nov-14 14:32N 40°36' W 074°12'3 1.5
2014-Nov-14 12:33N 40°38' W 074°10'3 2.5
2014-Nov-14 11:33N 40°39' W 074°07'3 2.5
2014-Nov-14 10:32N 40°38' W 074°10'0 0.0
2014-Nov-14 09:30N 40°38' W 074°10'0 0.0
2014-Nov-14 07:33N 40°38' W 074°10'0 0.0
2014-Nov-14 06:33N 40°38' W 074°10'0 0.0
2014-Nov-14 05:33N 40°38' W 074°10'0 0.0
2014-Nov-14 04:24N 40°38' W 074°10'0 0.0
2014-Nov-14 03:33N 40°38' W 074°10'0 0.0
2014-Nov-14 02:33N 40°38' W 074°10'0 0.1
2014-Nov-14 01:33N 40°38' W 074°10'4 3.7
2014-Nov-14 00:34N 40°39' W 074°05'0 0.2
2014-Nov-13 23:33N 40°39' W 074°05'0 0.0
2014-Nov-13 22:33N 40°39' W 074°05'0 0.3
2014-Nov-13 21:33N 40°39' W 074°05'6 6.0
2014-Nov-13 20:33N 40°43' W 073°59'6 6.5
2014-Nov-13 19:33N 40°48' W 073°54'0 0.0
2014-Nov-13 18:33N 40°48' W 073°54'0 0.0
2014-Nov-13 17:33N 40°48' W 073°54'0 0.0
2014-Nov-13 16:32N 40°48' W 073°54'0 0.0
2014-Nov-13 15:33N 40°48' W 073°54'0 0.0
2014-Nov-13 14:33N 40°48' W 073°54'0 0.0
2014-Nov-13 13:33N 40°48' W 073°54'0 0.0
2014-Nov-13 12:33N 40°48' W 073°54'0 0.0
2014-Nov-13 11:32N 40°48' W 073°54'0 0.0
2014-Nov-13 10:32N 40°48' W 073°54'0 0.0
2014-Nov-13 09:33N 40°48' W 073°54'0 0.0
2014-Nov-13 08:33N 40°48' W 073°54'0 0.3
2014-Nov-13 07:33N 40°48' W 073°54'  

Dump ship's entire track history